createdAt,value
2017-09-26T13:26:25.969Z,820
2017-09-26T13:26:44.754Z,815
2017-09-26T13:27:02.976Z,825
2017-09-26T13:27:35.206Z,825
2017-09-26T13:27:54.696Z,820
2017-09-26T13:28:28.156Z,820
2017-09-26T13:28:46.212Z,825
2017-09-26T13:29:04.993Z,825
2017-09-26T13:29:37.263Z,815
2017-09-26T13:29:55.505Z,820
2017-09-26T13:30:13.228Z,820
2017-09-26T13:30:31.857Z,820
2017-09-26T13:30:50.626Z,820
2017-09-26T13:31:08.550Z,825
2017-09-26T13:31:26.577Z,825
2017-09-26T13:31:46.180Z,825
2017-09-26T13:32:04.570Z,830
2017-09-26T13:32:24.005Z,815
2017-09-26T13:32:44.298Z,815
2017-09-26T13:33:02.257Z,815
2017-09-26T13:33:21.586Z,815
2017-09-26T13:33:55.676Z,825
2017-09-26T13:34:13.419Z,825
2017-09-26T13:34:33.368Z,835
2017-09-26T13:34:51.692Z,835
2017-09-26T13:35:24.952Z,820
2017-09-26T13:35:44.158Z,825
2017-09-26T13:36:02.234Z,820
2017-09-26T13:36:20.454Z,825
2017-09-26T13:36:39.775Z,835
2017-09-26T13:36:59.299Z,830
2017-09-26T13:37:20.448Z,820
2017-09-26T13:37:52.488Z,820
2017-09-26T13:38:11.636Z,820
2017-09-26T13:38:29.960Z,820
2017-09-26T13:38:49.018Z,825
2017-09-26T13:39:07.840Z,815
2017-09-26T13:39:40.882Z,825
2017-09-26T13:39:59.370Z,825
2017-09-26T13:40:18.745Z,825
2017-09-26T13:40:37.492Z,820
2017-09-26T13:40:57.439Z,830
2017-09-26T13:41:16.222Z,840
2017-09-26T13:41:35.218Z,840
2017-09-26T13:41:54.162Z,845
2017-09-26T13:42:13.663Z,845
2017-09-26T13:42:45.631Z,840
2017-09-26T13:43:05.340Z,845
2017-09-26T13:43:23.572Z,845
2017-09-26T13:43:42.765Z,850
2017-09-26T13:44:02.095Z,850
2017-09-26T13:44:20.241Z,855
2017-09-26T13:44:53.054Z,855
2017-09-26T13:45:45.338Z,860
2017-09-26T13:46:03.655Z,855
2017-09-26T13:46:23.182Z,855
2017-09-26T13:46:41.779Z,860
2017-09-26T13:47:00.981Z,855
2017-09-26T13:47:33.275Z,855
2017-09-26T13:47:52.600Z,855
2017-09-26T13:48:11.226Z,855
2017-09-26T13:48:30.310Z,855
2017-09-26T13:48:48.134Z,855
2017-09-26T13:49:21.187Z,855
2017-09-26T13:49:40.889Z,855
2017-09-26T13:50:14.205Z,855
2017-09-26T13:50:33.200Z,855
2017-09-26T13:50:52.207Z,855
2017-09-26T13:51:11.361Z,855
2017-09-26T13:51:30.625Z,860
2017-09-26T13:51:49.408Z,860
2017-09-26T13:52:22.449Z,865
2017-09-26T13:52:41.944Z,870
2017-09-26T13:53:00.632Z,875
2017-09-26T13:53:19.612Z,885
2017-09-26T13:53:38.569Z,900
2017-09-26T13:53:57.516Z,920
2017-09-26T13:54:17.216Z,945
2017-09-26T13:54:36.692Z,970
2017-09-26T13:54:54.794Z,985
2017-09-26T13:55:13.509Z,1005
2017-09-26T13:55:32.129Z,1000
2017-09-26T13:55:51.632Z,995
2017-09-26T13:56:10.320Z,985
2017-09-26T13:56:29.496Z,985
2017-09-26T13:57:02.578Z,1005
2017-09-26T13:57:20.891Z,1030
2017-09-26T13:57:40.249Z,1050
2017-09-26T13:57:59.694Z,1085
2017-09-26T13:58:19.455Z,1130
2017-09-26T13:58:51.973Z,1145
2017-09-26T13:59:10.877Z,1130
2017-09-26T13:59:30.098Z,1095
2017-09-26T14:00:03.668Z,1015
2017-09-26T14:00:22.718Z,965
2017-09-26T14:00:41.230Z,940
2017-09-26T14:00:59.873Z,915
2017-09-26T14:01:32.118Z,900
2017-09-26T14:01:52.105Z,890
2017-09-26T14:02:11.225Z,890
2017-09-26T14:02:30.115Z,885
2017-09-26T14:02:47.537Z,885
2017-09-26T14:03:06.824Z,895
2017-09-26T14:03:27.804Z,895
2017-09-26T14:04:01.469Z,890
2017-09-26T14:04:20.934Z,890
2017-09-26T14:04:40.207Z,890
2017-09-26T14:04:58.907Z,895
2017-09-26T14:05:32.790Z,890
2017-09-26T14:05:52.719Z,900
2017-09-26T14:06:11.253Z,895
2017-09-26T14:06:29.974Z,895
2017-09-26T14:06:49.681Z,900
2017-09-26T14:07:08.533Z,895
2017-09-26T14:07:28.329Z,895
2017-09-26T14:07:47.702Z,895
2017-09-26T14:08:06.178Z,905
2017-09-26T14:08:25.466Z,895
2017-09-26T14:08:44.584Z,905
2017-09-26T14:09:04.285Z,905
2017-09-26T14:09:23.936Z,905
2017-09-26T14:09:42.366Z,905
2017-09-26T14:10:02.073Z,900
2017-09-26T14:10:35.120Z,900
2017-09-26T14:10:54.233Z,905
2017-09-26T14:11:15.023Z,905
2017-09-26T14:11:35.236Z,905
2017-09-26T14:11:56.854Z,905
2017-09-26T14:12:21.023Z,905
2017-09-26T14:12:42.626Z,910
2017-09-26T14:13:03.498Z,910
2017-09-26T14:13:24.530Z,905
2017-09-26T14:13:43.876Z,905
2017-09-26T14:14:03.436Z,905
2017-09-26T14:14:23.022Z,905
2017-09-26T14:14:43.629Z,910
2017-09-26T14:15:04.744Z,915
2017-09-26T14:15:33.446Z,920
2017-09-26T14:15:56.459Z,925
2017-09-26T14:16:18.547Z,930
2017-09-26T14:16:41.337Z,930
2017-09-26T14:17:01.399Z,925
2017-09-26T14:17:22.373Z,920
2017-09-26T14:17:47.868Z,925
2017-09-26T14:18:11.842Z,935
2017-09-26T14:18:31.968Z,930
2017-09-26T14:18:53.232Z,930
2017-09-26T14:19:14.652Z,930
2017-09-26T14:19:44.592Z,930
2017-09-26T14:20:32.398Z,935
2017-09-26T14:20:55.574Z,940
2017-09-26T14:21:14.992Z,940
2017-09-26T14:21:33.981Z,940
2017-09-26T14:21:54.969Z,940
2017-09-26T14:22:15.055Z,945
2017-09-26T14:22:35.192Z,945
2017-09-26T14:22:57.430Z,945
2017-09-26T14:23:27.880Z,945
2017-09-26T14:23:48.361Z,955
2017-09-26T14:24:08.435Z,955
2017-09-26T14:24:28.173Z,950
2017-09-26T14:24:47.006Z,960
2017-09-26T14:25:06.337Z,950
2017-09-26T14:25:31.868Z,945
2017-09-26T14:25:50.499Z,950
2017-09-26T14:26:18.634Z,960
2017-09-26T14:26:49.355Z,960
2017-09-26T14:27:25.675Z,965
2017-09-26T14:27:55.148Z,955
2017-09-26T14:28:27.458Z,960
2017-09-26T14:29:01.453Z,965
2017-09-26T14:29:39.363Z,965
2017-09-26T14:30:03.556Z,965
2017-09-26T14:30:24.445Z,965
2017-09-26T14:30:44.417Z,965
2017-09-26T14:31:03.879Z,970
2017-09-26T14:31:24.672Z,975
2017-09-26T14:31:47.485Z,970
2017-09-26T14:32:11.018Z,965
2017-09-26T14:32:45.363Z,980
2017-09-26T14:33:05.281Z,990
2017-09-26T14:33:26.836Z,990
2017-09-26T14:33:49.039Z,1005
2017-09-26T14:34:10.065Z,1000
2017-09-26T14:34:43.107Z,1010
2017-09-26T14:35:40.552Z,1005
2017-09-26T14:36:11.008Z,1000
2017-09-26T14:36:34.410Z,1000
2017-09-26T14:36:56.714Z,1020
2017-09-26T14:37:17.577Z,1030
2017-09-26T14:37:51.100Z,1050
2017-09-26T14:38:11.271Z,1050
2017-09-26T14:38:32.348Z,1050
2017-09-26T14:38:52.117Z,1055
2017-09-26T14:39:18.133Z,1045
2017-09-26T14:39:36.441Z,1050
2017-09-26T14:39:57.340Z,1050
2017-09-26T14:40:48.611Z,1055
2017-09-26T14:41:09.159Z,1065
2017-09-26T14:41:27.828Z,1060
2017-09-26T14:42:03.109Z,1065
2017-09-26T14:42:24.244Z,1070
2017-09-26T14:42:46.099Z,1070
2017-09-26T14:43:06.155Z,1065
2017-09-26T14:43:27.611Z,1060
2017-09-26T14:43:52.077Z,1060
2017-09-26T14:44:26.379Z,1065
2017-09-26T14:44:57.303Z,1065
2017-09-26T14:45:20.821Z,1065
2017-09-26T14:45:42.871Z,1065
2017-09-26T14:46:14.368Z,1070
2017-09-26T14:46:46.970Z,1075
2017-09-26T14:47:13.935Z,1070
2017-09-26T14:47:34.406Z,1070
2017-09-26T14:47:52.811Z,1080
2017-09-26T14:48:11.620Z,1090
2017-09-26T14:48:30.738Z,1110
2017-09-26T14:49:03.237Z,1155
2017-09-26T14:49:22.908Z,1200
2017-09-26T14:50:00.212Z,1295
2017-09-26T14:50:18.750Z,1335
2017-09-26T14:50:37.279Z,1375
2017-09-26T14:50:56.847Z,1425
2017-09-26T14:51:17.039Z,1500
2017-09-26T14:51:35.521Z,1570
2017-09-26T14:51:53.611Z,1620
2017-09-26T14:52:13.902Z,1685
2017-09-26T14:52:32.827Z,1760
2017-09-26T14:52:52.234Z,1790
2017-09-26T14:53:20.068Z,1760
2017-09-26T14:53:43.660Z,1650
2017-09-26T14:54:08.180Z,1495
2017-09-26T14:54:39.371Z,1310
2017-09-26T14:55:08.505Z,1235
2017-09-26T14:55:35.464Z,1210
2017-09-26T14:55:57.157Z,1200
2017-09-26T14:56:23.329Z,1210
2017-09-26T14:56:45.734Z,1235
2017-09-26T14:57:19.319Z,1280
2017-09-26T14:57:40.897Z,1330
2017-09-26T14:58:06.478Z,1380
2017-09-26T14:58:30.366Z,1430
2017-09-26T14:58:50.294Z,1455
2017-09-26T14:59:23.911Z,1540
2017-09-26T14:59:56.983Z,1600
2017-09-26T15:00:25.276Z,1645
2017-09-26T15:00:55.849Z,1655
2017-09-26T15:01:17.060Z,1630
2017-09-26T15:01:36.076Z,1605
2017-09-26T15:01:54.643Z,1595
2017-09-26T15:02:15.576Z,1600
2017-09-26T15:02:36.085Z,1660
2017-09-26T15:02:56.901Z,1740
2017-09-26T15:03:19.110Z,1825
2017-09-26T15:03:39.180Z,1890
2017-09-26T15:04:02.381Z,1915
2017-09-26T15:04:21.326Z,1880
2017-09-26T15:04:41.670Z,1860
2017-09-26T15:05:02.872Z,1885
2017-09-26T15:05:22.950Z,1925
2017-09-26T15:05:43.367Z,1970
2017-09-26T15:06:03.986Z,2005
2017-09-26T15:06:25.308Z,2000
2017-09-26T15:06:44.703Z,1990
2017-09-26T15:07:03.871Z,1965
2017-09-26T15:07:22.684Z,1965
2017-09-26T15:07:43.900Z,1945
2017-09-26T15:08:06.458Z,1905
2017-09-26T15:08:29.138Z,1850
2017-09-26T15:09:26.271Z,1810
2017-09-26T15:09:45.968Z,1820
2017-09-26T15:10:19.179Z,1860
2017-09-26T15:10:48.522Z,1855
2017-09-26T15:11:27.181Z,1790
2017-09-26T15:11:49.474Z,1875
2017-09-26T15:12:23.556Z,1935
2017-09-26T15:12:43.429Z,1970
2017-09-26T15:13:02.225Z,1960
2017-09-26T15:13:20.904Z,1940
2017-09-26T15:13:42.701Z,1990
2017-09-26T15:14:03.339Z,1930
2017-09-26T15:14:25.169Z,1885
2017-09-26T15:14:47.927Z,1875
2017-09-26T15:15:08.247Z,1855
2017-09-26T15:15:28.897Z,1865
2017-09-26T15:16:03.450Z,1900
2017-09-26T15:16:25.780Z,1885
2017-09-26T15:16:47.071Z,1880
2017-09-26T15:17:06.324Z,1865
2017-09-26T15:17:25.197Z,1860
2017-09-26T15:17:46.350Z,1840
2017-09-26T15:18:07.040Z,1835
2017-09-26T15:18:26.551Z,1830
2017-09-26T15:18:46.441Z,1835
2017-09-26T15:19:08.960Z,1830
2017-09-26T15:19:31.580Z,1830
2017-09-26T15:19:51.643Z,1825
2017-09-26T15:20:10.727Z,1840
2017-09-26T15:20:30.585Z,1845
2017-09-26T15:20:49.218Z,1765
2017-09-26T15:21:43.759Z,1695
2017-09-26T15:22:06.375Z,1675
2017-09-26T15:22:25.343Z,1690
2017-09-26T15:22:46.013Z,1730
2017-09-26T15:23:07.929Z,1765
2017-09-26T15:23:27.169Z,1810
2017-09-26T15:23:48.300Z,1870
2017-09-26T15:24:09.311Z,1875
2017-09-26T15:24:36.907Z,1840
2017-09-26T15:24:59.943Z,1780
2017-09-26T15:25:26.087Z,1710
2017-09-26T15:25:47.332Z,1680
2017-09-26T15:26:07.222Z,1655
2017-09-26T15:26:29.068Z,1645
2017-09-26T15:26:47.694Z,1680
2017-09-26T15:27:10.240Z,1755
2017-09-26T15:27:33.405Z,1880
2017-09-26T15:27:54.758Z,1970
2017-09-26T15:28:16.213Z,2030
2017-09-26T15:28:39.468Z,2075
2017-09-26T15:29:01.593Z,2075
2017-09-26T15:29:29.688Z,2050
2017-09-26T15:29:59.980Z,2020
2017-09-26T15:30:30.927Z,2005
2017-09-26T15:31:15.469Z,1945
2017-09-26T15:31:54.862Z,1755
2017-09-26T15:32:47.474Z,1440
2017-09-26T15:33:33.618Z,1315
2017-09-26T15:35:12.848Z,1230
2017-09-26T15:36:53.979Z,1180
2017-09-26T15:38:08.739Z,1155
2017-09-26T15:39:40.615Z,1135
2017-09-26T15:40:54.736Z,1120
2017-09-26T15:41:38.589Z,1115
2017-09-26T15:42:12.907Z,1105
2017-09-26T15:42:48.962Z,1110
2017-09-26T15:43:38.940Z,1120
2017-09-26T15:44:35.301Z,1115
2017-09-26T15:45:46.615Z,1065
2017-09-26T15:46:22.587Z,585
2017-09-26T15:46:46.493Z,560
2017-09-26T15:47:06.631Z,545
2017-09-26T15:47:24.764Z,555
2017-09-26T15:47:59.098Z,535
2017-09-26T15:48:19.395Z,530
2017-09-26T15:48:37.361Z,530
2017-09-26T15:48:56.876Z,535
2017-09-26T15:49:17.387Z,530
2017-09-26T15:49:37.616Z,535
2017-09-26T15:49:59.155Z,565
2017-09-26T15:50:20.355Z,740
2017-09-26T15:50:48.314Z,685
2017-09-26T15:51:10.997Z,1040
2017-09-26T15:51:40.520Z,1015
2017-09-26T15:52:18.809Z,1045
2017-09-26T15:52:56.240Z,1020
2017-09-26T15:53:19.615Z,1035
2017-09-26T15:53:42.013Z,1020
2017-09-26T15:54:01.915Z,1020
2017-09-26T15:54:25.884Z,1010
2017-09-26T15:54:48.559Z,1010
2017-09-26T15:55:17.503Z,1020
2017-09-26T15:55:43.225Z,1010
2017-09-26T15:56:05.111Z,1000
2017-09-26T15:56:35.286Z,995
2017-09-26T15:56:58.295Z,995
2017-09-26T15:57:17.774Z,990
2017-09-26T15:57:41.118Z,990
2017-09-26T15:58:01.192Z,995
2017-09-26T15:58:25.167Z,985
2017-09-26T15:58:57.858Z,975
2017-09-26T15:59:19.712Z,975
2017-09-26T15:59:40.390Z,975
2017-09-26T16:00:14.558Z,960
2017-09-26T16:00:44.198Z,790
2017-09-26T16:01:03.986Z,730
2017-09-26T16:01:26.184Z,865
2017-09-26T16:01:46.632Z,970
2017-09-26T16:02:07.523Z,915
2017-09-26T16:02:27.348Z,675
2017-09-26T16:02:48.477Z,640
2017-09-26T16:03:08.890Z,890
2017-09-26T16:03:29.069Z,925
2017-09-26T16:04:03.592Z,600
2017-09-26T16:04:25.510Z,860
2017-09-26T16:04:45.720Z,935
2017-09-26T16:05:05.934Z,950
2017-09-26T16:05:29.299Z,960
2017-09-26T16:05:51.189Z,950
2017-09-26T16:06:13.216Z,935
2017-09-26T16:06:32.983Z,925
2017-09-26T16:06:53.152Z,570
2017-09-26T16:07:14.446Z,535
2017-09-26T16:07:35.420Z,510
2017-09-26T16:08:04.645Z,520
2017-09-26T16:08:29.948Z,695
2017-09-26T16:08:50.844Z,905
2017-09-26T16:09:10.680Z,940
2017-09-26T16:09:30.974Z,940
2017-09-26T16:09:51.832Z,935
2017-09-26T16:10:17.783Z,890
2017-09-26T16:10:38.925Z,925
2017-09-26T16:11:00.946Z,905
2017-09-26T16:11:21.205Z,905
2017-09-26T16:11:44.948Z,895
2017-09-26T16:12:06.896Z,880
2017-09-26T16:12:39.667Z,670
2017-09-26T16:13:00.590Z,460
2017-09-26T16:13:20.833Z,540
2017-09-26T16:13:40.601Z,765
2017-09-26T16:14:01.517Z,570
2017-09-26T16:14:22.355Z,440
2017-09-26T16:14:39.929Z,435
2017-09-26T16:15:06.547Z,445
2017-09-26T16:15:40.941Z,510
2017-09-26T16:16:04.136Z,475
2017-09-26T16:16:25.213Z,475
2017-09-26T16:16:48.718Z,595
2017-09-26T16:17:09.676Z,820
2017-09-26T16:17:28.909Z,870
2017-09-26T16:17:49.050Z,800
2017-09-26T16:18:07.915Z,745
2017-09-26T16:18:27.245Z,845
2017-09-26T16:18:46.373Z,905
2017-09-26T16:19:06.390Z,915
2017-09-26T16:19:32.816Z,915
2017-09-26T16:19:54.401Z,785
2017-09-26T16:20:15.603Z,470
2017-09-26T16:20:35.098Z,460
2017-09-26T16:20:55.553Z,460
2017-09-26T16:21:14.481Z,495
2017-09-26T16:21:35.410Z,535
2017-09-26T16:21:55.355Z,450
2017-09-26T16:22:18.236Z,140
2017-09-26T16:22:38.301Z,135
2017-09-26T16:22:58.179Z,135
2017-09-26T16:23:18.201Z,140
2017-09-26T16:23:38.827Z,120
2017-09-26T16:23:57.391Z,90
2017-09-26T16:24:17.234Z,200
2017-09-26T16:24:38.099Z,160
2017-09-26T16:25:10.515Z,140
2017-09-26T16:25:42.765Z,145
2017-09-26T16:26:05.278Z,155
2017-09-26T16:26:23.399Z,155
2017-09-26T16:26:42.598Z,125
2017-09-26T16:27:02.283Z,130
2017-09-26T16:27:23.654Z,140
2017-09-26T16:27:42.637Z,110
2017-09-26T16:28:01.917Z,105
2017-09-26T16:28:23.200Z,100
2017-09-26T16:28:57.976Z,105
2017-09-26T16:29:17.736Z,100
2017-09-26T16:30:35.459Z,100
2017-09-26T16:30:57.042Z,100
2017-09-26T16:31:32.286Z,100
2017-09-26T16:31:50.468Z,95
2017-09-26T16:32:09.036Z,85
2017-09-26T16:32:28.491Z,70
2017-09-26T16:32:50.182Z,85
2017-09-26T16:33:10.253Z,90
2017-09-26T16:34:04.145Z,525
2017-09-26T16:34:23.221Z,150
2017-09-26T16:34:41.997Z,790
2017-09-26T16:35:02.250Z,495
2017-09-26T16:35:21.466Z,445
2017-09-26T16:35:41.348Z,435
2017-09-26T16:36:00.368Z,430
2017-09-26T16:36:19.726Z,430
2017-09-26T16:36:39.235Z,420
2017-09-26T16:36:58.030Z,420
2017-09-26T16:37:17.115Z,420
2017-09-26T16:37:36.720Z,185
2017-09-26T16:37:56.479Z,180
2017-09-26T16:38:16.139Z,225
2017-09-26T16:38:36.201Z,205
2017-09-26T16:38:58.023Z,260
2017-09-26T16:39:16.816Z,205
2017-09-26T16:39:37.127Z,155
2017-09-26T16:39:57.292Z,135
2017-09-26T16:40:17.632Z,200
2017-09-26T16:40:37.979Z,295
2017-09-26T16:41:12.565Z,225
2017-09-26T16:41:31.005Z,185
2017-09-26T16:41:50.900Z,155
2017-09-26T16:42:12.786Z,265
2017-09-26T16:42:40.373Z,255
2017-09-26T16:43:02.321Z,275
2017-09-26T16:43:23.727Z,175
2017-09-26T16:43:42.913Z,280
2017-09-26T16:44:32.286Z,250
2017-09-26T16:44:53.134Z,230
2017-09-26T16:45:19.194Z,290
2017-09-26T16:45:38.773Z,295
2017-09-26T16:46:13.041Z,230
2017-09-26T16:46:48.050Z,280
2017-09-26T16:47:08.628Z,270
2017-09-26T16:47:30.688Z,265
2017-09-26T16:47:51.971Z,270
2017-09-26T16:48:13.063Z,170
2017-09-26T16:48:33.666Z,215
2017-09-26T16:48:56.935Z,240
2017-09-26T16:49:20.068Z,270
2017-09-26T16:49:40.784Z,275
2017-09-26T16:50:01.535Z,270
2017-09-26T16:50:22.529Z,330
2017-09-26T16:50:43.366Z,320
2017-09-26T16:51:17.682Z,290
2017-09-26T16:51:43.783Z,285
2017-09-26T16:52:05.366Z,295
2017-09-26T16:52:28.618Z,330
2017-09-26T16:52:52.457Z,330
2017-09-26T16:53:13.291Z,415
2017-09-26T16:53:33.852Z,335
2017-09-26T16:53:55.298Z,300
2017-09-26T16:54:28.904Z,375
2017-09-26T16:54:48.199Z,285
2017-09-26T16:55:06.486Z,255
2017-09-26T16:55:25.617Z,285
2017-09-26T16:55:44.883Z,290
2017-09-26T16:56:18.151Z,280
2017-09-26T16:56:36.606Z,285
2017-09-26T16:56:55.904Z,280
2017-09-26T16:57:14.034Z,265
2017-09-26T16:57:33.138Z,265
2017-09-26T16:57:52.862Z,245
2017-09-26T16:58:14.262Z,330
2017-09-26T16:58:33.379Z,265
2017-09-26T16:58:52.908Z,275
2017-09-26T16:59:13.657Z,275
2017-09-26T16:59:31.770Z,275
2017-09-26T16:59:52.127Z,265
2017-09-26T17:00:12.617Z,260
2017-09-26T17:00:33.223Z,265
2017-09-26T17:00:54.659Z,255
2017-09-26T17:01:30.593Z,110
2017-09-26T17:01:50.762Z,105
2017-09-26T17:02:11.203Z,100
2017-09-26T17:02:32.973Z,95
2017-09-26T17:03:06.319Z,90
2017-09-26T17:03:26.676Z,90
2017-09-26T17:03:47.928Z,95
2017-09-26T17:04:10.128Z,90
2017-09-26T17:04:29.388Z,85
2017-09-26T17:05:03.291Z,90
2017-09-26T17:05:37.137Z,85
2017-09-26T17:05:55.988Z,80
2017-09-26T17:06:15.371Z,80
2017-09-26T17:06:35.286Z,80
2017-09-26T17:06:54.218Z,75
2017-09-26T17:07:13.868Z,80
2017-09-26T17:07:46.261Z,80
2017-09-26T17:08:38.713Z,80
2017-09-26T17:08:58.314Z,80
2017-09-26T17:09:18.106Z,75
2017-09-26T17:09:38.060Z,75
2017-09-26T17:09:57.916Z,80
2017-09-26T17:10:17.353Z,75
2017-09-26T17:10:37.282Z,90
2017-09-26T17:10:56.621Z,430
2017-09-26T17:11:16.038Z,325
2017-09-26T17:11:34.000Z,330
2017-09-26T17:11:54.594Z,320
2017-09-26T17:12:13.769Z,300
2017-09-26T17:12:33.237Z,325
2017-09-26T17:12:52.584Z,1015
2017-09-26T17:13:11.513Z,1015
2017-09-26T17:13:29.723Z,1030
2017-09-26T17:13:49.573Z,1045
2017-09-26T17:14:09.567Z,1075
2017-09-26T17:14:27.337Z,1115
2017-09-26T17:14:46.302Z,1175
2017-09-26T17:15:05.347Z,1200
2017-09-26T17:15:24.431Z,1245
2017-09-26T17:15:44.676Z,1265
2017-09-26T17:16:37.990Z,1265
2017-09-26T17:17:11.206Z,1215
2017-09-26T17:17:30.211Z,1200
2017-09-26T17:17:48.168Z,1190
2017-09-26T17:18:08.067Z,1190
2017-09-26T17:18:27.415Z,1195
2017-09-26T17:18:47.024Z,1205
2017-09-26T17:19:05.063Z,1190
2017-09-26T17:19:24.390Z,1170
2017-09-26T17:19:57.142Z,1140
2017-09-26T17:20:15.977Z,1130
2017-09-26T17:20:49.696Z,1120
2017-09-26T17:21:07.547Z,1120
2017-09-26T17:21:26.056Z,1110
2017-09-26T17:21:45.608Z,1105
2017-09-26T17:22:03.894Z,1100
2017-09-26T17:22:36.749Z,1110
2017-09-26T17:22:54.691Z,1115
2017-09-26T17:23:13.647Z,1060
2017-09-26T17:23:31.067Z,1015
2017-09-26T17:23:49.575Z,1095
2017-09-26T17:24:40.031Z,1130
2017-09-26T17:24:58.034Z,1150
2017-09-26T17:25:16.815Z,1175
2017-09-26T17:25:35.636Z,1195
2017-09-26T17:25:55.010Z,1185
2017-09-26T17:26:28.550Z,1165
2017-09-26T17:27:21.690Z,1190
2017-09-26T17:28:13.483Z,1170
2017-09-26T17:28:32.815Z,1155
2017-09-26T17:28:51.121Z,1095
2017-09-26T17:29:43.045Z,1085
2017-09-26T17:30:02.009Z,1030
2017-09-26T17:30:20.839Z,955
2017-09-26T17:30:39.370Z,945
2017-09-26T17:31:11.622Z,950
2017-09-26T17:31:31.106Z,925
2017-09-26T17:31:49.995Z,915
2017-09-26T17:32:07.773Z,895
2017-09-26T17:32:26.522Z,895
2017-09-26T17:32:46.069Z,880
2017-09-26T17:33:05.135Z,875
2017-09-26T17:33:22.929Z,840
2017-09-26T17:33:55.701Z,840
2017-09-26T17:34:14.175Z,840
2017-09-26T17:34:32.446Z,835
2017-09-26T17:34:51.331Z,830
2017-09-26T17:35:10.555Z,820
2017-09-26T17:35:30.061Z,785
2017-09-26T17:35:48.021Z,815
2017-09-26T17:36:07.317Z,815
2017-09-26T17:36:27.031Z,785
2017-09-26T17:36:46.814Z,770
2017-09-26T17:37:06.608Z,545
2017-09-26T17:37:25.898Z,570
2017-09-26T17:37:45.272Z,745
2017-09-26T17:38:05.270Z,725
2017-09-26T17:38:24.038Z,725
2017-09-26T17:38:43.449Z,710
2017-09-26T17:39:02.494Z,760
2017-09-26T17:39:22.551Z,765
2017-09-26T17:40:15.915Z,740
2017-09-26T17:40:35.986Z,760
2017-09-26T17:40:55.881Z,740
2017-09-26T17:41:15.426Z,715
2017-09-26T17:41:35.249Z,725
2017-09-26T17:42:08.006Z,740
2017-09-26T17:42:41.314Z,740
2017-09-26T17:43:01.088Z,715
2017-09-26T17:43:19.989Z,720
2017-09-26T17:43:53.446Z,715
2017-09-26T17:44:27.104Z,755
2017-09-26T17:44:45.723Z,775
2017-09-26T17:45:04.542Z,755
2017-09-26T17:45:23.335Z,745
2017-09-26T17:45:43.556Z,730
2017-09-26T17:46:16.650Z,760
2017-09-26T17:46:35.556Z,750
2017-09-26T17:46:55.829Z,740
2017-09-26T17:47:15.041Z,720
2017-09-26T17:47:48.543Z,425
2017-09-26T17:48:08.464Z,415
2017-09-26T17:48:27.964Z,435
2017-09-26T17:48:46.816Z,275
2017-09-26T17:49:39.697Z,230
2017-09-26T17:49:59.063Z,210
2017-09-26T17:50:17.637Z,500
2017-09-26T17:50:36.669Z,510
2017-09-26T17:50:56.263Z,475
2017-09-26T17:51:29.102Z,425
2017-09-26T17:51:47.560Z,425
2017-09-26T17:52:06.216Z,390
2017-09-26T17:52:25.400Z,345
2017-09-26T17:53:18.495Z,405
2017-09-26T17:53:38.730Z,435
2017-09-26T17:53:58.654Z,450
2017-09-26T17:54:18.178Z,455
2017-09-26T17:54:38.184Z,300
2017-09-26T17:54:57.988Z,310
2017-09-26T17:55:16.575Z,370
2017-09-26T17:55:35.623Z,425
2017-09-26T17:55:55.664Z,435
2017-09-26T17:56:15.378Z,430
2017-09-26T17:56:35.260Z,445
2017-09-26T17:56:55.747Z,465
2017-09-26T17:57:15.737Z,510
2017-09-26T17:57:35.194Z,485
2017-09-26T17:57:53.919Z,465
2017-09-26T17:58:12.468Z,480
2017-09-26T17:58:46.349Z,485
2017-09-26T17:59:05.934Z,475
2017-09-26T17:59:27.285Z,455
2017-09-26T17:59:45.037Z,465
2017-09-26T18:00:18.582Z,475
2017-09-26T18:00:37.099Z,445
2017-09-26T18:00:56.477Z,370
2017-09-26T18:01:29.890Z,445
2017-09-26T18:01:48.752Z,405
2017-09-26T18:02:08.499Z,435
2017-09-26T18:02:40.714Z,385
2017-09-26T18:02:59.738Z,360
2017-09-26T18:03:18.506Z,325
2017-09-26T18:03:37.540Z,415
2017-09-26T18:03:56.558Z,415
2017-09-26T18:04:14.801Z,425
2017-09-26T18:04:32.521Z,435
2017-09-26T18:04:51.535Z,415
2017-09-26T18:05:11.862Z,410
2017-09-26T18:05:33.239Z,420
2017-09-26T18:06:05.096Z,105
2017-09-26T18:06:24.529Z,105
2017-09-26T18:06:43.895Z,90
2017-09-26T18:07:03.068Z,100
2017-09-26T18:07:22.552Z,110
2017-09-26T18:07:57.168Z,100
2017-09-26T18:08:15.528Z,105
2017-09-26T18:08:34.182Z,85
2017-09-26T18:08:53.400Z,80
2017-09-26T18:09:11.969Z,90
2017-09-26T18:09:31.426Z,85
2017-09-26T18:09:50.863Z,85
2017-09-26T18:10:10.279Z,90
2017-09-26T18:10:28.514Z,90
2017-09-26T18:10:47.114Z,90
2017-09-26T18:11:06.675Z,100
2017-09-26T18:11:25.469Z,95
2017-09-26T18:11:43.537Z,100
2017-09-26T18:12:03.304Z,100
2017-09-26T18:12:21.459Z,100
2017-09-26T18:12:40.636Z,95
2017-09-26T18:12:59.770Z,95
2017-09-26T18:13:18.403Z,100
2017-09-26T18:13:37.229Z,100
2017-09-26T18:13:55.481Z,105
2017-09-26T18:14:46.434Z,95
2017-09-26T18:15:05.722Z,90
2017-09-26T18:15:23.988Z,90
2017-09-26T18:15:43.476Z,90
2017-09-26T18:16:03.030Z,85
2017-09-26T18:16:22.862Z,80
2017-09-26T18:16:42.430Z,85
2017-09-26T18:17:00.524Z,90
2017-09-26T18:17:19.334Z,90
2017-09-26T18:17:42.892Z,90
2017-09-26T18:18:19.030Z,90
2017-09-26T18:18:40.772Z,80
2017-09-26T18:19:01.153Z,85
2017-09-26T18:19:34.720Z,70
2017-09-26T18:19:55.525Z,75
2017-09-26T18:20:16.224Z,60
2017-09-26T18:20:35.580Z,60
2017-09-26T18:20:56.492Z,65
2017-09-26T18:21:14.301Z,75
2017-09-26T18:21:35.027Z,80
2017-09-26T18:22:07.949Z,75
2017-09-26T18:22:29.952Z,80
2017-09-26T18:22:50.736Z,85
2017-09-26T18:23:11.030Z,85
2017-09-26T18:23:30.089Z,90
2017-09-26T18:23:49.648Z,90
2017-09-26T18:24:07.632Z,90
2017-09-26T18:24:27.996Z,90
2017-09-26T18:24:48.589Z,95
2017-09-26T18:25:07.991Z,100
2017-09-26T18:25:27.586Z,100
2017-09-26T18:25:47.635Z,100
2017-09-26T18:26:07.224Z,95
2017-09-26T18:26:26.007Z,90
2017-09-26T18:26:45.107Z,100
2017-09-26T18:27:04.206Z,90
2017-09-26T18:27:23.702Z,90
2017-09-26T18:27:44.402Z,95
2017-09-26T18:28:05.079Z,65
2017-09-26T18:28:25.236Z,55
2017-09-26T18:28:44.738Z,60
2017-09-26T18:29:18.246Z,60
2017-09-26T18:29:35.657Z,60
2017-09-26T18:29:54.372Z,60
2017-09-26T18:30:13.260Z,60
2017-09-26T18:30:31.190Z,80
2017-09-26T18:30:50.733Z,75
2017-09-26T18:31:10.869Z,70
2017-09-26T18:31:44.205Z,70
2017-09-26T18:32:02.182Z,270
2017-09-26T18:32:22.327Z,330
2017-09-26T18:32:55.121Z,415
2017-09-26T18:33:13.511Z,425
2017-09-26T18:33:31.850Z,425
2017-09-26T18:33:49.713Z,445
2017-09-26T18:34:22.264Z,445
2017-09-26T18:34:55.536Z,400
2017-09-26T18:35:29.205Z,385
2017-09-26T18:35:47.994Z,385
2017-09-26T18:36:07.145Z,385
2017-09-26T18:36:26.386Z,385
2017-09-26T18:36:45.900Z,395
2017-09-26T18:37:04.452Z,420
2017-09-26T18:37:36.726Z,455
2017-09-26T18:38:09.674Z,580
2017-09-26T18:38:29.332Z,440
2017-09-26T18:38:48.804Z,410
2017-09-26T18:39:08.266Z,400
2017-09-26T18:39:27.623Z,390
2017-09-26T18:39:46.714Z,390
2017-09-26T18:40:06.472Z,390
2017-09-26T18:40:39.422Z,390
2017-09-26T18:40:57.963Z,390
2017-09-26T18:41:32.184Z,380
2017-09-26T18:41:50.666Z,375
2017-09-26T18:42:09.193Z,365
2017-09-26T18:42:27.487Z,345
2017-09-26T18:42:45.952Z,330
2017-09-26T18:43:37.584Z,295
2017-09-26T18:44:11.084Z,290
2017-09-26T18:44:29.320Z,290
2017-09-26T18:44:47.978Z,280
2017-09-26T18:45:06.802Z,275
2017-09-26T18:45:26.517Z,270
2017-09-26T18:45:58.793Z,265
2017-09-26T18:46:17.944Z,265
2017-09-26T18:46:36.977Z,265
2017-09-26T18:46:56.611Z,260
2017-09-26T18:47:29.385Z,255
2017-09-26T18:47:49.411Z,250
2017-09-26T18:48:08.249Z,245
2017-09-26T18:48:26.587Z,240
2017-09-26T18:49:19.041Z,235